createdAt,value
2017-04-02T00:00:49.257Z,1013.95
2017-04-02T00:01:58.151Z,1013.93
2017-04-02T00:03:07.364Z,1013.99
2017-04-02T00:04:16.579Z,1013.98
2017-04-02T00:05:25.500Z,1014.02
2017-04-02T00:06:34.542Z,1014.03
2017-04-02T00:07:43.769Z,1014.02
2017-04-02T00:08:52.986Z,1014.11
2017-04-02T00:10:01.877Z,1014.13
2017-04-02T00:11:10.767Z,1014.16
2017-04-02T00:12:19.806Z,1014.21
2017-04-02T00:13:28.696Z,1014.21
2017-04-02T00:14:37.622Z,1014.23
2017-04-02T00:15:46.513Z,1014.25
2017-04-02T00:16:55.730Z,1014.26
2017-04-02T00:18:04.993Z,1014.34
2017-04-02T00:19:13.887Z,1014.31
2017-04-02T00:20:22.831Z,1014.37
2017-04-02T00:21:32.046Z,1014.36
2017-04-02T00:22:41.263Z,1014.36
2017-04-02T00:23:50.409Z,1014.33
2017-04-02T00:24:59.627Z,1014.32
2017-04-02T00:26:08.841Z,1014.31
2017-04-02T00:27:17.730Z,1014.34
2017-04-02T00:28:26.954Z,1014.33
2017-04-02T00:29:35.843Z,1014.34
2017-04-02T00:30:44.737Z,1014.35
2017-04-02T00:31:53.626Z,1014.36
2017-04-02T00:33:02.840Z,1014.38
2017-04-02T00:34:11.737Z,1014.37
2017-04-02T00:35:20.625Z,1014.39
2017-04-02T00:36:29.514Z,1014.37
2017-04-02T00:37:38.400Z,1014.38
2017-04-02T00:38:47.294Z,1014.38
2017-04-02T00:39:56.504Z,1014.36
2017-04-02T00:41:05.641Z,1014.32
2017-04-02T00:42:14.529Z,1014.35
2017-04-02T00:43:23.421Z,1014.38
2017-04-02T00:44:32.314Z,1014.38
2017-04-02T00:45:41.201Z,1014.41
2017-04-02T00:46:50.136Z,1014.39
2017-04-02T00:47:59.353Z,1014.34
2017-04-02T00:49:08.243Z,1014.34
2017-04-02T00:50:17.132Z,1014.35
2017-04-02T00:51:26.017Z,1014.34
2017-04-02T00:52:35.104Z,1014.32
2017-04-02T00:53:43.992Z,1014.39
2017-04-02T00:54:53.209Z,1014.38
2017-04-02T00:56:02.140Z,1014.37
2017-04-02T00:57:11.032Z,1014.35
2017-04-02T00:58:19.970Z,1014.41
2017-04-02T00:59:28.857Z,1014.33
2017-04-02T01:00:38.070Z,1014.37
2017-04-02T01:01:47.608Z,1014.41
2017-04-02T01:02:56.505Z,1014.4
2017-04-02T01:04:05.447Z,1014.41
2017-04-02T01:05:14.337Z,1014.4
2017-04-02T01:06:23.224Z,1014.42
2017-04-02T01:07:32.112Z,1014.46
2017-04-02T01:08:41.002Z,1014.43
2017-04-02T01:09:50.144Z,1014.41
2017-04-02T01:10:59.034Z,1014.43
2017-04-02T01:12:07.929Z,1014.41
2017-04-02T01:13:17.145Z,1014.44
2017-04-02T01:14:26.039Z,1014.49
2017-04-02T01:15:35.302Z,1014.46
2017-04-02T01:16:44.521Z,1014.53
2017-04-02T01:17:53.410Z,1014.58
2017-04-02T01:19:02.308Z,1014.62
2017-04-02T01:20:11.203Z,1014.62
2017-04-02T01:21:20.574Z,1014.6
2017-04-02T01:22:29.460Z,1014.66
2017-04-02T01:23:38.348Z,1014.65
2017-04-02T01:24:47.236Z,1014.66
2017-04-02T01:25:56.126Z,1014.61
2017-04-02T01:27:05.166Z,1014.65
2017-04-02T01:28:14.385Z,1014.68
2017-04-02T01:29:23.272Z,1014.7
2017-04-02T01:30:32.161Z,1014.65
2017-04-02T01:31:41.698Z,1014.66
2017-04-02T01:32:50.737Z,1014.67
2017-04-02T01:33:59.628Z,1014.71
2017-04-02T01:35:08.518Z,1014.71
2017-04-02T01:36:17.412Z,1014.75
2017-04-02T01:37:26.300Z,1014.77
2017-04-02T01:38:35.237Z,1014.84
2017-04-02T01:39:44.121Z,1014.81
2017-04-02T01:40:53.010Z,1014.84
2017-04-02T01:42:01.901Z,1014.85
2017-04-02T01:43:10.793Z,1014.86
2017-04-02T01:44:19.732Z,1014.84
2017-04-02T01:45:29.285Z,1014.86
2017-04-02T01:46:38.180Z,1014.88
2017-04-02T01:47:47.392Z,1014.84
2017-04-02T01:48:56.279Z,1014.88
2017-04-02T01:50:05.543Z,1014.86
2017-04-02T01:51:14.756Z,1014.87
2017-04-02T01:52:23.659Z,1014.87
2017-04-02T01:53:32.549Z,1014.87
2017-04-02T01:54:41.439Z,1014.88
2017-04-02T01:55:50.639Z,1014.87
2017-04-02T01:56:59.569Z,1014.86
2017-04-02T01:58:08.458Z,1014.87
2017-04-02T01:59:17.669Z,1014.87
2017-04-02T02:00:26.931Z,1014.87
2017-04-02T02:01:36.129Z,1014.88
2017-04-02T02:02:45.671Z,1014.85
2017-04-02T02:03:54.885Z,1014.87
2017-04-02T02:05:03.775Z,1014.82
2017-04-02T02:06:12.667Z,1014.85
2017-04-02T02:07:22.140Z,1014.89
2017-04-02T02:08:31.366Z,1014.83
2017-04-02T02:09:40.253Z,1014.86
2017-04-02T02:10:49.466Z,1014.85
2017-04-02T02:11:58.361Z,1014.89
2017-04-02T02:13:07.635Z,1014.86
2017-04-02T02:14:16.529Z,1014.87
2017-04-02T02:15:25.517Z,1014.94
2017-04-02T02:16:34.737Z,1014.9
2017-04-02T02:17:43.953Z,1014.95
2017-04-02T02:18:53.142Z,1014.97
2017-04-02T02:20:02.036Z,1014.96
2017-04-02T02:21:10.924Z,1014.95
2017-04-02T02:22:19.817Z,1014.96
2017-04-02T02:23:28.705Z,1014.93
2017-04-02T02:24:37.994Z,1015
2017-04-02T02:25:46.899Z,1015.02
2017-04-02T02:26:55.789Z,1015.03
2017-04-02T02:28:04.680Z,1015.05
2017-04-02T02:29:13.569Z,1015.06
2017-04-02T02:30:22.506Z,1015.02
2017-04-02T02:31:32.047Z,1015.02
2017-04-02T02:32:40.937Z,1015.05
2017-04-02T02:33:49.834Z,1015.11
2017-04-02T02:34:59.052Z,1015.07
2017-04-02T02:36:07.940Z,1015.09
2017-04-02T02:37:17.156Z,1015.11
2017-04-02T02:38:26.046Z,1015.09
2017-04-02T02:39:34.935Z,1015.11
2017-04-02T02:40:44.145Z,1015.09
2017-04-02T02:41:53.041Z,1015.08
2017-04-02T02:43:01.936Z,1015.13
2017-04-02T02:44:10.830Z,1015.13
2017-04-02T02:45:19.720Z,1015.13
2017-04-02T02:46:28.937Z,1015.13
2017-04-02T02:47:37.974Z,1015.12
2017-04-02T02:48:47.186Z,1015.17
2017-04-02T02:49:56.082Z,1015.17
2017-04-02T02:51:05.296Z,1015.15
2017-04-02T02:52:14.186Z,1015.18
2017-04-02T02:53:23.699Z,1015.2
2017-04-02T02:54:32.590Z,1015.21
2017-04-02T02:55:41.479Z,1015.18
2017-04-02T02:56:50.370Z,1015.22
2017-04-02T02:57:59.587Z,1015.18
2017-04-02T02:59:09.055Z,1015.21
2017-04-02T03:00:17.942Z,1015.2
2017-04-02T03:01:26.828Z,1015.18
2017-04-02T03:02:35.719Z,1015.14
2017-04-02T03:03:44.611Z,1015.11
2017-04-02T03:04:53.804Z,1015.07
2017-04-02T03:06:02.698Z,1015.1
2017-04-02T03:07:11.626Z,1015.07
2017-04-02T03:08:20.512Z,1015.09
2017-04-02T03:09:29.402Z,1015.1
2017-04-02T03:10:38.442Z,1015.12
2017-04-02T03:11:47.333Z,1015.1
2017-04-02T03:12:56.224Z,1015.21
2017-04-02T03:14:05.113Z,1015.21
2017-04-02T03:15:14.003Z,1015.22
2017-04-02T03:16:23.319Z,1015.28
2017-04-02T03:17:32.214Z,1015.31
2017-04-02T03:18:41.102Z,1015.33
2017-04-02T03:19:50.315Z,1015.37
2017-04-02T03:20:59.206Z,1015.35
2017-04-02T03:22:08.245Z,1015.35
2017-04-02T03:23:17.790Z,1015.38
2017-04-02T03:24:26.999Z,1015.38
2017-04-02T03:25:35.894Z,1015.43
2017-04-02T03:26:44.786Z,1015.41
2017-04-02T03:27:53.728Z,1015.41
2017-04-02T03:29:02.619Z,1015.43
2017-04-02T03:30:11.833Z,1015.46
2017-04-02T03:31:20.724Z,1015.46
2017-04-02T03:32:29.616Z,1015.43
2017-04-02T03:33:38.501Z,1015.45
2017-04-02T03:34:47.394Z,1015.47
2017-04-02T03:35:56.290Z,1015.47
2017-04-02T03:37:05.181Z,1015.48
2017-04-02T03:38:14.074Z,1015.51
2017-04-02T03:39:22.962Z,1015.54
2017-04-02T03:40:32.175Z,1015.54
2017-04-02T03:41:41.064Z,1015.54
2017-04-02T03:42:49.954Z,1015.56
2017-04-02T03:43:58.846Z,1015.55
2017-04-02T03:45:08.214Z,1015.53
2017-04-02T03:46:17.105Z,1015.6
2017-04-02T03:47:25.994Z,1015.62
2017-04-02T03:48:34.882Z,1015.61
2017-04-02T03:49:43.769Z,1015.58
2017-04-02T03:50:53.140Z,1015.64
2017-04-02T03:52:02.029Z,1015.63
2017-04-02T03:53:10.922Z,1015.7
2017-04-02T03:54:19.813Z,1015.64
2017-04-02T03:55:28.695Z,1015.66
2017-04-02T03:56:37.909Z,1015.65
2017-04-02T03:57:46.794Z,1015.61
2017-04-02T03:58:55.680Z,1015.65
2017-04-02T04:00:04.568Z,1015.63
2017-04-02T04:01:13.453Z,1015.62
2017-04-02T04:02:22.446Z,1015.62
2017-04-02T04:03:31.335Z,1015.63
2017-04-02T04:04:40.228Z,1015.62
2017-04-02T04:05:49.119Z,1015.63
2017-04-02T04:06:58.006Z,1015.65
2017-04-02T04:08:07.235Z,1015.65
2017-04-02T04:09:16.449Z,1015.69
2017-04-02T04:10:25.345Z,1015.67
2017-04-02T04:11:34.563Z,1015.7
2017-04-02T04:12:43.450Z,1015.66
2017-04-02T04:13:52.486Z,1015.67
2017-04-02T04:15:01.375Z,1015.64
2017-04-02T04:16:10.591Z,1015.68
2017-04-02T04:17:19.483Z,1015.68
2017-04-02T04:18:28.698Z,1015.69
2017-04-02T04:19:37.637Z,1015.7
2017-04-02T04:20:46.526Z,1015.68
2017-04-02T04:21:55.415Z,1015.74
2017-04-02T04:23:04.314Z,1015.73
2017-04-02T04:24:13.238Z,1015.75
2017-04-02T04:25:22.127Z,1015.76
2017-04-02T04:26:31.015Z,1015.77
2017-04-02T04:27:40.229Z,1015.75
2017-04-02T04:28:49.116Z,1015.81
2017-04-02T04:29:58.042Z,1015.77
2017-04-02T04:31:07.507Z,1015.8
2017-04-02T04:32:16.397Z,1015.79
2017-04-02T04:33:25.614Z,1015.8
2017-04-02T04:34:34.506Z,1015.79
2017-04-02T04:35:43.396Z,1015.84
2017-04-02T04:36:52.284Z,1015.89
2017-04-02T04:38:01.173Z,1015.91
2017-04-02T04:39:10.062Z,1015.89
2017-04-02T04:40:18.988Z,1015.92
2017-04-02T04:41:27.878Z,1015.91
2017-04-02T04:42:36.969Z,1015.93
2017-04-02T04:43:46.184Z,1015.92
2017-04-02T04:44:55.071Z,1015.94
2017-04-02T04:46:04.298Z,1015.97
2017-04-02T04:47:13.524Z,1015.98
2017-04-02T04:48:22.515Z,1015.96
2017-04-02T04:49:31.406Z,1015.98
2017-04-02T04:50:40.299Z,1016.06
2017-04-02T04:51:49.516Z,1016.08
2017-04-02T04:52:58.446Z,1016.08
2017-04-02T04:54:07.343Z,1016.07
2017-04-02T04:55:16.232Z,1016.1
2017-04-02T04:56:25.165Z,1016.07
2017-04-02T04:57:34.057Z,1016.1
2017-04-02T04:58:43.276Z,1016.12
2017-04-02T04:59:52.266Z,1016.16
2017-04-02T05:01:01.487Z,1016.2
2017-04-02T05:02:11.358Z,1016.24
2017-04-02T05:03:20.249Z,1016.24
2017-04-02T05:04:29.138Z,1016.24
2017-04-02T05:05:38.177Z,1016.28
2017-04-02T05:06:47.067Z,1016.25
2017-04-02T05:07:55.957Z,1016.29
2017-04-02T05:09:05.171Z,1016.28
2017-04-02T05:10:14.067Z,1016.3
2017-04-02T05:11:23.686Z,1016.32
2017-04-02T05:12:32.578Z,1016.36
2017-04-02T05:13:41.468Z,1016.35
2017-04-02T05:14:50.359Z,1016.36
2017-04-02T05:15:59.248Z,1016.42
2017-04-02T05:17:08.627Z,1016.42
2017-04-02T05:18:17.516Z,1016.46
2017-04-02T05:19:26.740Z,1016.44
2017-04-02T05:20:35.634Z,1016.44
2017-04-02T05:21:44.883Z,1016.46
2017-04-02T05:22:54.522Z,1016.51
2017-04-02T05:24:03.412Z,1016.5
2017-04-02T05:25:12.303Z,1016.49
2017-04-02T05:26:21.195Z,1016.51
2017-04-02T05:27:30.088Z,1016.49
2017-04-02T05:28:39.028Z,1016.53
2017-04-02T05:29:48.247Z,1016.5
2017-04-02T05:30:57.139Z,1016.49
2017-04-02T05:32:06.358Z,1016.54
2017-04-02T05:33:15.254Z,1016.59
2017-04-02T05:34:24.493Z,1016.58
2017-04-02T05:35:33.428Z,1016.6
2017-04-02T05:36:42.325Z,1016.67
2017-04-02T05:37:51.543Z,1016.67
2017-04-02T05:39:00.433Z,1016.69
2017-04-02T05:40:09.375Z,1016.75
2017-04-02T05:41:18.267Z,1016.74
2017-04-02T05:42:27.487Z,1016.79
2017-04-02T05:43:36.374Z,1016.79
2017-04-02T05:44:45.267Z,1016.82
2017-04-02T05:45:54.206Z,1016.84
2017-04-02T05:47:03.099Z,1016.83
2017-04-02T05:48:11.994Z,1016.86
2017-04-02T05:49:20.887Z,1016.9
2017-04-02T05:50:29.780Z,1016.91
2017-04-02T05:51:38.821Z,1016.9
2017-04-02T05:52:47.751Z,1016.93
2017-04-02T05:53:56.639Z,1016.94
2017-04-02T05:55:05.534Z,1016.93
2017-04-02T05:56:14.427Z,1016.93
2017-04-02T05:57:23.741Z,1016.94
2017-04-02T05:58:32.634Z,1016.93
2017-04-02T05:59:41.851Z,1016.92
2017-04-02T06:00:51.066Z,1016.95
2017-04-02T06:01:59.966Z,1016.95
2017-04-02T06:03:08.957Z,1017.01
2017-04-02T06:04:17.851Z,1016.99
2017-04-02T06:05:27.080Z,1016.99
2017-04-02T06:06:35.974Z,1017
2017-04-02T06:07:45.190Z,1017.01
2017-04-02T06:08:54.231Z,1017.03
2017-04-02T06:10:03.163Z,1017.01
2017-04-02T06:11:12.058Z,1017
2017-04-02T06:12:20.953Z,1017.09
2017-04-02T06:13:29.844Z,1017.07
2017-04-02T06:14:38.886Z,1017.13
2017-04-02T06:15:47.773Z,1017.14
2017-04-02T06:16:56.986Z,1017.19
2017-04-02T06:18:06.204Z,1017.18
2017-04-02T06:19:15.096Z,1017.19
2017-04-02T06:20:24.049Z,1017.18
2017-04-02T06:21:33.264Z,1017.24
2017-04-02T06:22:42.481Z,1017.22
2017-04-02T06:23:51.366Z,1017.23
2017-04-02T06:25:00.263Z,1017.27
2017-04-02T06:26:09.556Z,1017.29
2017-04-02T06:27:19.097Z,1017.29
2017-04-02T06:28:27.990Z,1017.31
2017-04-02T06:29:36.874Z,1017.32
2017-04-02T06:30:45.762Z,1017.27
2017-04-02T06:31:54.801Z,1017.29
2017-04-02T06:33:04.668Z,1017.3
2017-04-02T06:34:13.560Z,1017.33
2017-04-02T06:35:22.449Z,1017.3
2017-04-02T06:36:31.665Z,1017.35
2017-04-02T06:37:40.552Z,1017.34
2017-04-02T06:38:49.444Z,1017.38
2017-04-02T06:39:58.657Z,1017.38
2017-04-02T06:41:07.868Z,1017.38
2017-04-02T06:42:16.761Z,1017.43
2017-04-02T06:43:25.697Z,1017.47
2017-04-02T06:44:34.583Z,1017.49
2017-04-02T06:45:43.470Z,1017.53
2017-04-02T06:46:52.364Z,1017.54
2017-04-02T06:48:01.266Z,1017.56
2017-04-02T06:49:10.306Z,1017.54
2017-04-02T06:50:19.198Z,1017.57
2017-04-02T06:51:28.411Z,1017.58
2017-04-02T06:52:37.296Z,1017.58
2017-04-02T06:53:46.189Z,1017.6
2017-04-02T06:54:55.128Z,1017.6
2017-04-02T06:56:04.669Z,1017.61
2017-04-02T06:57:13.555Z,1017.61
2017-04-02T06:58:22.438Z,1017.59
2017-04-02T06:59:31.327Z,1017.62
2017-04-02T07:00:40.517Z,1017.61
2017-04-02T07:01:49.405Z,1017.62
2017-04-02T07:02:58.295Z,1017.69
2017-04-02T07:04:07.188Z,1017.69
2017-04-02T07:05:16.415Z,1017.72
2017-04-02T07:06:25.388Z,1017.73
2017-04-02T07:07:34.631Z,1017.71
2017-04-02T07:08:43.518Z,1017.68
2017-04-02T07:09:52.435Z,1017.75
2017-04-02T07:11:01.384Z,1017.73
2017-04-02T07:12:10.637Z,1017.71
2017-04-02T07:13:19.604Z,1017.75
2017-04-02T07:14:28.501Z,1017.78
2017-04-02T07:15:37.541Z,1017.76
2017-04-02T07:16:46.437Z,1017.74
2017-04-02T07:17:55.638Z,1017.8
2017-04-02T07:19:04.911Z,1017.84
2017-04-02T07:20:13.830Z,1017.82
2017-04-02T07:21:23.043Z,1017.82
2017-04-02T07:22:31.967Z,1017.84
2017-04-02T07:23:41.188Z,1017.91
2017-04-02T07:24:50.076Z,1017.88
2017-04-02T07:25:59.286Z,1017.87
2017-04-02T07:27:08.180Z,1017.9
2017-04-02T07:28:17.424Z,1017.94
2017-04-02T07:29:26.889Z,1017.96
2017-04-02T07:30:35.844Z,1017.98
2017-04-02T07:31:44.815Z,1018.01
2017-04-02T07:32:54.034Z,1018.01
2017-04-02T07:34:02.936Z,1018
2017-04-02T07:35:12.302Z,1018.05
2017-04-02T07:36:21.516Z,1018.04
2017-04-02T07:37:30.435Z,1018.07
2017-04-02T07:38:39.682Z,1018.06
2017-04-02T07:39:48.568Z,1018.09
2017-04-02T07:40:57.620Z,1018.13
2017-04-02T07:42:06.900Z,1018.1
2017-04-02T07:43:15.803Z,1018.14
2017-04-02T07:44:25.090Z,1018.16
2017-04-02T07:45:34.416Z,1018.16
2017-04-02T07:46:43.522Z,1018.22
2017-04-02T07:47:52.627Z,1018.23
2017-04-02T07:49:01.639Z,1018.25
2017-04-02T07:50:10.549Z,1018.24
2017-04-02T07:51:19.442Z,1018.22
2017-04-02T07:52:28.512Z,1018.23
2017-04-02T07:53:37.606Z,1018.23
2017-04-02T07:54:46.493Z,1018.21
2017-04-02T07:55:55.390Z,1018.22
2017-04-02T07:57:04.302Z,1018.26
2017-04-02T07:58:13.928Z,1018.29
2017-04-02T07:59:22.815Z,1018.3
2017-04-02T08:00:31.780Z,1018.33
2017-04-02T08:01:40.990Z,1018.36
2017-04-02T08:02:49.936Z,1018.34
2017-04-02T08:03:58.828Z,1018.38
2017-04-02T08:05:07.724Z,1018.35
2017-04-02T08:06:16.614Z,1018.38
2017-04-02T08:07:25.504Z,1018.42
2017-04-02T08:08:34.934Z,1018.44
2017-04-02T08:09:44.162Z,1018.46
2017-04-02T08:10:53.118Z,1018.39
2017-04-02T08:12:02.361Z,1018.39
2017-04-02T08:13:11.257Z,1018.46
2017-04-02T08:14:20.175Z,1018.5
2017-04-02T08:15:29.065Z,1018.48
2017-04-02T08:16:38.326Z,1018.52
2017-04-02T08:17:47.239Z,1018.52
2017-04-02T08:18:56.145Z,1018.57
2017-04-02T08:20:05.071Z,1018.6
2017-04-02T08:21:14.232Z,1018.57
2017-04-02T08:22:23.162Z,1018.61
2017-04-02T08:23:32.055Z,1018.63
2017-04-02T08:24:40.986Z,1018.59
2017-04-02T08:25:49.880Z,1018.59
2017-04-02T08:26:58.769Z,1018.65
2017-04-02T08:28:07.659Z,1018.66
2017-04-02T08:29:16.853Z,1018.66
2017-04-02T08:30:25.943Z,1018.69
2017-04-02T08:31:34.838Z,1018.69
2017-04-02T08:32:44.052Z,1018.72
2017-04-02T08:33:52.946Z,1018.73
2017-04-02T08:35:02.319Z,1018.74
2017-04-02T08:36:11.212Z,1018.75
2017-04-02T08:37:20.436Z,1018.79
2017-04-02T08:38:29.328Z,1018.79
2017-04-02T08:39:38.879Z,1018.75
2017-04-02T08:40:47.819Z,1018.78
2017-04-02T08:41:57.036Z,1018.78
2017-04-02T08:43:05.932Z,1018.74
2017-04-02T08:44:14.822Z,1018.75
2017-04-02T08:45:23.727Z,1018.82
2017-04-02T08:46:33.192Z,1018.79
2017-04-02T08:47:42.101Z,1018.83
2017-04-02T08:48:50.991Z,1018.79
2017-04-02T08:50:00.203Z,1018.87
2017-04-02T08:51:09.100Z,1018.93
2017-04-02T08:52:18.195Z,1018.94
2017-04-02T08:53:27.416Z,1018.96
2017-04-02T08:54:36.631Z,1018.9
2017-04-02T08:55:45.849Z,1018.92
2017-04-02T08:56:54.747Z,1018.92
2017-04-02T08:58:03.649Z,1019
2017-04-02T08:59:12.574Z,1018.97
2017-04-02T09:00:21.500Z,1018.91
2017-04-02T09:01:30.725Z,1018.96
2017-04-02T09:02:39.983Z,1018.96
2017-04-02T09:03:49.354Z,1018.97
2017-04-02T09:04:58.569Z,1018.96
2017-04-02T09:06:07.798Z,1019.05
2017-04-02T09:07:16.688Z,1019.02
2017-04-02T09:08:25.803Z,1019.03
2017-04-02T09:09:35.001Z,1019.09
2017-04-02T09:10:44.220Z,1019.05
2017-04-02T09:11:53.113Z,1019.09
2017-04-02T09:13:02.004Z,1019.13
2017-04-02T09:14:10.901Z,1019.08
2017-04-02T09:15:19.945Z,1019.04
2017-04-02T09:16:28.887Z,1019.05
2017-04-02T09:17:38.099Z,1019.05
2017-04-02T09:18:46.990Z,1019.1
2017-04-02T09:19:55.884Z,1019.04
2017-04-02T09:21:05.202Z,1019.11
2017-04-02T09:22:14.099Z,1019.1
2017-04-02T09:23:22.991Z,1019.15
2017-04-02T09:24:32.280Z,1019.14
2017-04-02T09:25:41.178Z,1019.17
2017-04-02T09:26:50.510Z,1019.19
2017-04-02T09:27:59.932Z,1019.18
2017-04-02T09:29:08.826Z,1019.17
2017-04-02T09:30:18.044Z,1019.22
2017-04-02T09:31:26.936Z,1019.2
2017-04-02T09:32:35.881Z,1019.23
2017-04-02T09:33:44.771Z,1019.22
2017-04-02T09:34:53.662Z,1019.27
2017-04-02T09:36:02.941Z,1019.25
2017-04-02T09:37:12.191Z,1019.25
2017-04-02T09:38:21.557Z,1019.3
2017-04-02T09:39:30.485Z,1019.3
2017-04-02T09:40:39.383Z,1019.33
2017-04-02T09:41:48.276Z,1019.33
2017-04-02T09:42:57.842Z,1019.28
2017-04-02T09:44:06.957Z,1019.32
2017-04-02T09:45:15.854Z,1019.33
2017-04-02T09:46:25.075Z,1019.31
2017-04-02T09:47:33.974Z,1019.39
2017-04-02T09:48:42.867Z,1019.38
2017-04-02T09:49:51.861Z,1019.39
2017-04-02T09:51:00.769Z,1019.42
2017-04-02T09:52:09.738Z,1019.41
2017-04-02T09:53:18.690Z,1019.44
2017-04-02T09:54:27.644Z,1019.4
2017-04-02T09:55:36.536Z,1019.44
2017-04-02T09:56:45.765Z,1019.39
2017-04-02T09:57:54.657Z,1019.42
2017-04-02T09:59:03.552Z,1019.39
2017-04-02T10:00:12.441Z,1019.38
2017-04-02T10:01:21.386Z,1019.41
2017-04-02T10:02:30.284Z,1019.41
2017-04-02T10:03:39.499Z,1019.45
2017-04-02T10:04:48.390Z,1019.37
2017-04-02T10:05:57.285Z,1019.38
2017-04-02T10:07:06.330Z,1019.38
2017-04-02T10:08:15.550Z,1019.41
2017-04-02T10:09:24.768Z,1019.39
2017-04-02T10:10:33.660Z,1019.49
2017-04-02T10:11:42.553Z,1019.46
2017-04-02T10:12:51.597Z,1019.42
2017-04-02T10:14:00.527Z,1019.49
2017-04-02T10:15:09.420Z,1019.46
2017-04-02T10:16:18.641Z,1019.47
2017-04-02T10:17:27.544Z,1019.45
2017-04-02T10:18:36.916Z,1019.47
2017-04-02T10:19:45.806Z,1019.46
2017-04-02T10:20:55.024Z,1019.37
2017-04-02T10:22:03.977Z,1019.34
2017-04-02T10:23:13.523Z,1019.4
2017-04-02T10:24:22.416Z,1019.39
2017-04-02T10:25:31.638Z,1019.4
2017-04-02T10:26:40.858Z,1019.45
2017-04-02T10:27:50.077Z,1019.49
2017-04-02T10:28:58.969Z,1019.47
2017-04-02T10:30:07.866Z,1019.47
2017-04-02T10:31:16.764Z,1019.52
2017-04-02T10:32:25.987Z,1019.48
2017-04-02T10:33:35.208Z,1019.52
2017-04-02T10:34:44.100Z,1019.55
2017-04-02T10:35:53.137Z,1019.55
2017-04-02T10:37:02.040Z,1019.54
2017-04-02T10:38:11.266Z,1019.53
2017-04-02T10:39:20.157Z,1019.54
2017-04-02T10:40:29.049Z,1019.55
2017-04-02T10:41:37.994Z,1019.54
2017-04-02T10:42:47.535Z,1019.51
2017-04-02T10:43:56.440Z,1019.54
2017-04-02T10:45:05.333Z,1019.53
2017-04-02T10:46:14.227Z,1019.5
2017-04-02T10:47:23.272Z,1019.5
2017-04-02T10:48:32.163Z,1019.56
2017-04-02T10:49:41.061Z,1019.54
2017-04-02T10:50:50.280Z,1019.53
2017-04-02T10:51:59.179Z,1019.5
2017-04-02T10:53:08.074Z,1019.55
2017-04-02T10:54:17.291Z,1019.58
2017-04-02T10:55:26.342Z,1019.57
2017-04-02T10:56:35.295Z,1019.55
2017-04-02T10:57:44.482Z,1019.58
2017-04-02T10:58:53.673Z,1019.63
2017-04-02T11:00:02.572Z,1019.6
2017-04-02T11:01:11.475Z,1019.58
2017-04-02T11:02:20.414Z,1019.62
2017-04-02T11:03:29.737Z,1019.64
2017-04-02T11:04:38.782Z,1019.62
2017-04-02T11:05:48.067Z,1019.57
2017-04-02T11:06:57.296Z,1019.58
2017-04-02T11:08:06.518Z,1019.58
2017-04-02T11:09:15.459Z,1019.61
2017-04-02T11:10:25.171Z,1019.6
2017-04-02T11:11:34.070Z,1019.62
2017-04-02T11:12:43.292Z,1019.58
2017-04-02T11:13:52.508Z,1019.61
2017-04-02T11:15:01.528Z,1019.69
2017-04-02T11:16:10.424Z,1019.68
2017-04-02T11:17:19.694Z,1019.63
2017-04-02T11:18:28.925Z,1019.68
2017-04-02T11:19:38.549Z,1019.66
2017-04-02T11:20:47.477Z,1019.71
2017-04-02T11:21:57.004Z,1019.74
2017-04-02T11:23:05.906Z,1019.68
2017-04-02T11:24:15.131Z,1019.74
2017-04-02T11:25:24.035Z,1019.69
2017-04-02T11:26:33.617Z,1019.78
2017-04-02T11:27:42.776Z,1019.78
2017-04-02T11:28:51.676Z,1019.81
2017-04-02T11:30:00.574Z,1019.75
2017-04-02T11:31:09.473Z,1019.72
2017-04-02T11:32:19.078Z,1019.72
2017-04-02T11:33:28.605Z,1019.73
2017-04-02T11:34:37.500Z,1019.78
2017-04-02T11:35:46.400Z,1019.68
2017-04-02T11:36:55.297Z,1019.75
2017-04-02T11:38:04.517Z,1019.72
2017-04-02T11:39:13.671Z,1019.73
2017-04-02T11:40:22.566Z,1019.82
2017-04-02T11:41:31.459Z,1019.88
2017-04-02T11:42:40.356Z,1019.84
2017-04-02T11:43:49.257Z,1019.83
2017-04-02T11:44:58.253Z,1019.88
2017-04-02T11:46:07.472Z,1019.88
2017-04-02T11:47:16.692Z,1019.86
2017-04-02T11:48:25.589Z,1019.84
2017-04-02T11:49:34.812Z,1019.83
2017-04-02T11:50:44.091Z,1019.83
2017-04-02T11:51:52.993Z,1019.83
2017-04-02T11:53:01.886Z,1019.85
2017-04-02T11:54:11.433Z,1019.85
2017-04-02T11:55:20.332Z,1019.82
2017-04-02T11:56:29.358Z,1019.83
2017-04-02T11:57:38.253Z,1019.88
2017-04-02T11:58:47.150Z,1019.92
2017-04-02T11:59:56.042Z,1019.95
2017-04-02T12:01:04.942Z,1019.94
2017-04-02T12:02:13.896Z,1019.98
2017-04-02T12:03:22.800Z,1019.9
2017-04-02T12:04:31.713Z,1019.9
2017-04-02T12:05:40.657Z,1019.92
2017-04-02T12:06:49.553Z,1019.91
2017-04-02T12:07:58.601Z,1019.95
2017-04-02T12:09:07.825Z,1019.94
2017-04-02T12:10:17.050Z,1019.96
2017-04-02T12:11:26.275Z,1019.95
2017-04-02T12:12:35.499Z,1019.93
2017-04-02T12:13:44.546Z,1019.95
2017-04-02T12:14:53.440Z,1020
2017-04-02T12:16:02.347Z,1019.96
2017-04-02T12:17:11.308Z,1019.98
2017-04-02T12:18:20.265Z,1019.96
2017-04-02T12:19:29.320Z,1019.99
2017-04-02T12:20:38.231Z,1019.89
2017-04-02T12:21:47.130Z,1019.92
2017-04-02T12:22:56.070Z,1019.99
2017-04-02T12:24:05.336Z,1019.95
2017-04-02T12:25:14.260Z,1019.98
2017-04-02T12:26:23.530Z,1019.9
2017-04-02T12:27:32.469Z,1019.94
2017-04-02T12:28:41.381Z,1019.96
2017-04-02T12:29:50.540Z,1019.99
2017-04-02T12:31:00.026Z,1020.05
2017-04-02T12:32:09.273Z,1020
2017-04-02T12:33:18.524Z,1020.04
2017-04-02T12:34:27.753Z,1020
2017-04-02T12:35:36.676Z,1020
2017-04-02T12:36:46.053Z,1019.96
2017-04-02T12:37:54.954Z,1019.97
2017-04-02T12:39:03.850Z,1019.98
2017-04-02T12:40:13.074Z,1020.01
2017-04-02T12:41:21.976Z,1020.02
2017-04-02T12:42:31.550Z,1020.04
2017-04-02T12:43:40.450Z,1020.03
2017-04-02T12:44:49.674Z,1020.03
2017-04-02T12:45:58.570Z,1020.05
2017-04-02T12:47:07.468Z,1020.09
2017-04-02T12:48:16.520Z,1020.04
2017-04-02T12:49:25.424Z,1020.09
2017-04-02T12:50:34.317Z,1020.15
2017-04-02T12:51:43.224Z,1020.18
2017-04-02T12:52:52.125Z,1020.17
2017-04-02T12:54:01.412Z,1020.18
2017-04-02T12:55:10.635Z,1020.18
2017-04-02T12:56:19.535Z,1020.21
2017-04-02T12:57:29.088Z,1020.1
2017-04-02T12:58:37.987Z,1020.19
2017-04-02T12:59:47.039Z,1020.16
2017-04-02T13:00:56.261Z,1020.06
2017-04-02T13:02:05.489Z,1020.1
2017-04-02T13:03:14.724Z,1020.08
2017-04-02T13:04:23.945Z,1020.05
2017-04-02T13:05:32.847Z,1020.05
2017-04-02T13:06:42.071Z,1020.12
2017-04-02T13:07:50.966Z,1020.07
2017-04-02T13:09:00.514Z,1020.12
2017-04-02T13:10:09.413Z,1020.06
2017-04-02T13:11:18.465Z,1020.08
2017-04-02T13:12:27.370Z,1020.03
2017-04-02T13:13:36.590Z,1020.13
2017-04-02T13:14:45.485Z,1020.16
2017-04-02T13:15:54.383Z,1020.09
2017-04-02T13:17:03.434Z,1020.06
2017-04-02T13:18:12.334Z,1020.08
2017-04-02T13:19:21.233Z,1020.05
2017-04-02T13:20:30.454Z,1020.11
2017-04-02T13:21:39.352Z,1020.18
2017-04-02T13:22:48.450Z,1020.19
2017-04-02T13:23:57.345Z,1020.15
2017-04-02T13:25:06.243Z,1020.16
2017-04-02T13:26:15.143Z,1020.07
2017-04-02T13:27:24.059Z,1020.12
2017-04-02T13:28:33.344Z,1020.05
2017-04-02T13:29:42.246Z,1020.03
2017-04-02T13:30:51.142Z,1020.03
2017-04-02T13:32:00.043Z,1020.09
2017-04-02T13:33:08.944Z,1020.12
2017-04-02T13:34:17.995Z,1020.08
2017-04-02T13:35:26.899Z,1020.12
2017-04-02T13:36:35.802Z,1020.1
2017-04-02T13:37:44.701Z,1020.12
2017-04-02T13:38:53.931Z,1020.09
2017-04-02T13:40:03.258Z,1020.03
2017-04-02T13:41:12.157Z,1020.08
2017-04-02T13:42:21.057Z,1020.08
2017-04-02T13:43:29.962Z,1020.1
2017-04-02T13:44:38.858Z,1020.11
2017-04-02T13:45:47.857Z,1020.15
2017-04-02T13:46:56.751Z,1020.15
2017-04-02T13:48:05.658Z,1020.17
2017-04-02T13:49:14.609Z,1020.15
2017-04-02T13:50:23.506Z,1020.21
2017-04-02T13:51:32.406Z,1020.16
2017-04-02T13:52:41.307Z,1020.16
2017-04-02T13:53:50.202Z,1020.19
2017-04-02T13:54:59.096Z,1020.2
2017-04-02T13:56:07.992Z,1020.2
2017-04-02T13:57:16.948Z,1020.14
2017-04-02T13:58:25.883Z,1020.13